Airfield :
LOGIN :

Register | Disclaimer

   EN    FR    IT 

 










Legend :    VFR   Marginal VFR   IFR   Intensive IFR   Very Intensive IFR
Visi :
Ceiling :
>= 8 km
>= 3000ft
5 to 8 km
1000 to 3000 ft
1500m to 5 km
500 to 1000 ft
800 to 1500m
200 to 500 ft
< 800m
< 200 ft
Symbols :   Thunderstorms  Fog  Heavy snow  Heavy precipitations  Wind > 20 kt
SIGMETs :     Misc.  Thunderstorms  Icing  Turbulence  Mountain Waves  Volcanic Ashes







- Airport Elevation : 3 ft
- IATA code : LWR


EHLW - Leuuwarden Air Base

CURRENT METAR :
  • 220604Z AUTO 15006KT 130V190 2000 R23/2200U DZRA BKN002 OVC004 02/02 Q1003 AMB

EXPIRED METARs :
  • 220555Z AUTO 16007KT 110V170 2300 R23/2000N -RADZ BKN002 OVC003 02/02 Q1003 RERA REDZ AMB
  • 220535Z AUTO 16009KT 130V200 2400 R23/2300D BR BKN002 OVC004 02/02 Q1003 AMB
  • 220525Z AUTO 16008KT 130V190 2600 R23/2900D BR OVC003 02/02 Q1003 YLO
  • 220515Z AUTO 16008KT 120V180 3200 R23/P3000N BR BKN003 OVC004 02/02 Q1003 YLO
  • 220455Z AUTO 16009KT 120V180 4000 -DZ BKN003 OVC004 02/02 Q1003 REDZ YLO
  • 220425Z AUTO 17010KT 140V200 3200 R23/P3000U -DZ SCT003 BKN004 BKN005 FEW015CB 02/02 Q1003 REDZ YLO
  • 220355Z AUTO 16009KT 120V190 2700 R23/3000N +DZRA BKN003 OVC005 02/01 Q1004 YLO
  • 220351Z AUTO 16010KT 120V180 2800 R23/3000N DZ SCT003 BKN005 OVC006 02/01 Q1004 YLO
  • 220325Z AUTO 17013KT 120V210 2900 R23/P3000N DZ FEW004 BKN005 OVC006 02/01 Q1004 YLO
  • 220317Z AUTO 16012KT 120V190 3000 R23/3000D DZRA FEW004 SCT005 BKN006 FEW015CB 02/01 Q1004 YLO

TAF COR TAF EHLW
Valid from the 22 at 06:00 until the 22 at 18:00 UTC


220532Z 2206/2218 16008KT 3000 -DZ BKN003 OVC004
PROB40
TEMPO 2206/2208 2500 DZ BKN002 OVC004
BECMG 2209/2211 28012KT 9999 NSW SCT015 BKN020
BECMG 2211/2213 FEW020 SCT030
No reported NOTAMs for that airfield.



MET'MAP, your aeronautical weather chart ! - Copyright ORBIFLY December 2007 - Disclaimer

ORBIFLY MET'MAP TEAM :

Programming & Development : Alexandra Zaïnal
Concept & Development : Baudouin d'Aumeries
Co-Development & Prog : Marc-Olivier Méhu
Technical & hardware support : Manuel Goepfert

Contact : metmap@orbifly.com




SOURCES & CREDITS :

   NOAA